sensor_id;sensor_type;location;lat;lon;timestamp;P1;durP1;ratioP1;P2;durP2;ratioP2
26690;SDS011;14307;51.718;8.938;2022-11-18T00:00:54;58.63;;;31.20;;
26690;SDS011;14307;51.718;8.938;2022-11-18T00:03:21;60.63;;;30.55;;
26690;SDS011;14307;51.718;8.938;2022-11-18T00:05:55;78.22;;;32.38;;
26690;SDS011;14307;51.718;8.938;2022-11-18T00:08:25;78.20;;;32.17;;
26690;SDS011;14307;51.718;8.938;2022-11-18T00:10:52;68.90;;;31.00;;
26690;SDS011;14307;51.718;8.938;2022-11-18T00:13:19;64.82;;;30.67;;
26690;SDS011;14307;51.718;8.938;2022-11-18T00:18:35;67.03;;;32.35;;
26690;SDS011;14307;51.718;8.938;2022-11-18T00:21:03;68.85;;;31.77;;
26690;SDS011;14307;51.718;8.938;2022-11-18T00:23:35;89.95;;;35.88;;
26690;SDS011;14307;51.718;8.938;2022-11-18T00:26:03;74.32;;;32.17;;
26690;SDS011;14307;51.718;8.938;2022-11-18T00:28:32;82.68;;;35.88;;
26690;SDS011;14307;51.718;8.938;2022-11-18T00:31:03;79.13;;;34.35;;
26690;SDS011;14307;51.718;8.938;2022-11-18T00:33:35;77.78;;;35.40;;
26690;SDS011;14307;51.718;8.938;2022-11-18T00:36:02;69.32;;;34.85;;
26690;SDS011;14307;51.718;8.938;2022-11-18T00:38:30;79.20;;;34.92;;
26690;SDS011;14307;51.718;8.938;2022-11-18T00:41:01;74.32;;;33.03;;
26690;SDS011;14307;51.718;8.938;2022-11-18T00:43:29;75.60;;;30.63;;
26690;SDS011;14307;51.718;8.938;2022-11-18T00:45:57;67.60;;;32.17;;
26690;SDS011;14307;51.718;8.938;2022-11-18T00:48:25;79.45;;;34.20;;
26690;SDS011;14307;51.718;8.938;2022-11-18T00:50:53;79.00;;;34.03;;
26690;SDS011;14307;51.718;8.938;2022-11-18T00:53:22;86.53;;;34.13;;
26690;SDS011;14307;51.718;8.938;2022-11-18T00:55:50;77.07;;;32.65;;
26690;SDS011;14307;51.718;8.938;2022-11-18T00:58:16;87.63;;;32.60;;
26690;SDS011;14307;51.718;8.938;2022-11-18T01:00:45;75.07;;;32.50;;
26690;SDS011;14307;51.718;8.938;2022-11-18T01:03:15;83.45;;;33.95;;
26690;SDS011;14307;51.718;8.938;2022-11-18T01:05:42;76.22;;;33.80;;
26690;SDS011;14307;51.718;8.938;2022-11-18T01:08:09;80.13;;;33.38;;
26690;SDS011;14307;51.718;8.938;2022-11-18T01:10:37;90.72;;;34.72;;
26690;SDS011;14307;51.718;8.938;2022-11-18T01:13:05;93.88;;;35.42;;
26690;SDS011;14307;51.718;8.938;2022-11-18T01:15:48;84.18;;;34.22;;
26690;SDS011;14307;51.718;8.938;2022-11-18T01:18:24;78.65;;;35.67;;
26690;SDS011;14307;51.718;8.938;2022-11-18T01:20:52;96.00;;;37.42;;
26690;SDS011;14307;51.718;8.938;2022-11-18T01:23:19;87.50;;;36.83;;
26690;SDS011;14307;51.718;8.938;2022-11-18T01:25:46;94.93;;;37.45;;
26690;SDS011;14307;51.718;8.938;2022-11-18T01:28:15;105.63;;;37.92;;
26690;SDS011;14307;51.718;8.938;2022-11-18T01:30:48;95.57;;;37.58;;
26690;SDS011;14307;51.718;8.938;2022-11-18T01:33:15;114.22;;;40.58;;
26690;SDS011;14307;51.718;8.938;2022-11-18T01:35:42;107.40;;;38.50;;
26690;SDS011;14307;51.718;8.938;2022-11-18T01:38:10;122.70;;;43.88;;
26690;SDS011;14307;51.718;8.938;2022-11-18T01:40:38;133.43;;;41.70;;
26690;SDS011;14307;51.718;8.938;2022-11-18T01:43:12;125.03;;;42.33;;
26690;SDS011;14307;51.718;8.938;2022-11-18T01:45:45;129.77;;;41.75;;
26690;SDS011;14307;51.718;8.938;2022-11-18T01:51:05;143.63;;;43.53;;
26690;SDS011;14307;51.718;8.938;2022-11-18T01:53:56;133.73;;;41.30;;
26690;SDS011;14307;51.718;8.938;2022-11-18T01:56:30;160.75;;;45.40;;
26690;SDS011;14307;51.718;8.938;2022-11-18T01:59:04;168.73;;;46.72;;
26690;SDS011;14307;51.718;8.938;2022-11-18T02:01:34;193.73;;;47.72;;
26690;SDS011;14307;51.718;8.938;2022-11-18T02:06:53;255.13;;;56.35;;
26690;SDS011;14307;51.718;8.938;2022-11-18T02:09:20;272.55;;;53.53;;
26690;SDS011;14307;51.718;8.938;2022-11-18T02:11:47;275.67;;;53.22;;
26690;SDS011;14307;51.718;8.938;2022-11-18T02:14:18;262.92;;;54.28;;
26690;SDS011;14307;51.718;8.938;2022-11-18T02:22:28;250.95;;;54.05;;
26690;SDS011;14307;51.718;8.938;2022-11-18T02:25:32;196.75;;;46.53;;
26690;SDS011;14307;51.718;8.938;2022-11-18T02:30:47;260.60;;;51.65;;
26690;SDS011;14307;51.718;8.938;2022-11-18T02:34:06;217.88;;;46.08;;
26690;SDS011;14307;51.718;8.938;2022-11-18T02:38:43;191.80;;;45.17;;
26690;SDS011;14307;51.718;8.938;2022-11-18T02:41:17;196.77;;;45.65;;
26690;SDS011;14307;51.718;8.938;2022-11-18T02:43:50;157.90;;;41.75;;
26690;SDS011;14307;51.718;8.938;2022-11-18T02:46:25;146.30;;;40.33;;
26690;SDS011;14307;51.718;8.938;2022-11-18T02:48:55;132.70;;;38.00;;
26690;SDS011;14307;51.718;8.938;2022-11-18T02:51:24;125.35;;;35.00;;
26690;SDS011;14307;51.718;8.938;2022-11-18T02:53:54;132.95;;;38.42;;
26690;SDS011;14307;51.718;8.938;2022-11-18T02:56:24;139.30;;;37.28;;
26690;SDS011;14307;51.718;8.938;2022-11-18T02:58:52;127.55;;;37.63;;
26690;SDS011;14307;51.718;8.938;2022-11-18T03:01:20;129.57;;;38.05;;
26690;SDS011;14307;51.718;8.938;2022-11-18T03:03:50;130.80;;;37.92;;
26690;SDS011;14307;51.718;8.938;2022-11-18T03:14:31;158.60;;;42.38;;
26690;SDS011;14307;51.718;8.938;2022-11-18T03:25:18;132.20;;;39.92;;
26690;SDS011;14307;51.718;8.938;2022-11-18T03:27:59;132.68;;;39.25;;
26690;SDS011;14307;51.718;8.938;2022-11-18T03:30:34;127.88;;;38.25;;
26690;SDS011;14307;51.718;8.938;2022-11-18T03:33:05;123.80;;;36.97;;
26690;SDS011;14307;51.718;8.938;2022-11-18T03:35:38;115.95;;;36.95;;
26690;SDS011;14307;51.718;8.938;2022-11-18T03:38:08;112.95;;;36.95;;
26690;SDS011;14307;51.718;8.938;2022-11-18T03:40:41;110.03;;;36.23;;
26690;SDS011;14307;51.718;8.938;2022-11-18T03:43:15;128.52;;;39.20;;
26690;SDS011;14307;51.718;8.938;2022-11-18T03:45:50;131.95;;;39.22;;
26690;SDS011;14307;51.718;8.938;2022-11-18T03:48:26;138.32;;;41.90;;
26690;SDS011;14307;51.718;8.938;2022-11-18T03:50:58;147.25;;;42.58;;
26690;SDS011;14307;51.718;8.938;2022-11-18T03:53:35;138.18;;;40.67;;
26690;SDS011;14307;51.718;8.938;2022-11-18T03:56:12;132.88;;;41.08;;
26690;SDS011;14307;51.718;8.938;2022-11-18T03:58:46;153.32;;;43.92;;
26690;SDS011;14307;51.718;8.938;2022-11-18T04:01:20;171.38;;;45.90;;
26690;SDS011;14307;51.718;8.938;2022-11-18T04:04:08;193.40;;;49.85;;
26690;SDS011;14307;51.718;8.938;2022-11-18T04:06:40;184.13;;;49.55;;
26690;SDS011;14307;51.718;8.938;2022-11-18T04:09:14;229.85;;;53.75;;
26690;SDS011;14307;51.718;8.938;2022-11-18T04:11:50;226.73;;;54.50;;
26690;SDS011;14307;51.718;8.938;2022-11-18T04:14:35;194.13;;;50.03;;
26690;SDS011;14307;51.718;8.938;2022-11-18T04:17:07;208.77;;;50.78;;
26690;SDS011;14307;51.718;8.938;2022-11-18T04:19:43;191.60;;;49.72;;
26690;SDS011;14307;51.718;8.938;2022-11-18T04:22:10;196.90;;;52.53;;
26690;SDS011;14307;51.718;8.938;2022-11-18T04:24:37;201.85;;;49.70;;
26690;SDS011;14307;51.718;8.938;2022-11-18T04:27:04;216.25;;;49.92;;
26690;SDS011;14307;51.718;8.938;2022-11-18T04:29:38;206.40;;;51.17;;
26690;SDS011;14307;51.718;8.938;2022-11-18T04:32:05;173.70;;;47.63;;
26690;SDS011;14307;51.718;8.938;2022-11-18T04:34:32;190.88;;;47.40;;
26690;SDS011;14307;51.718;8.938;2022-11-18T04:36:58;167.52;;;45.35;;
26690;SDS011;14307;51.718;8.938;2022-11-18T04:39:25;181.63;;;48.28;;
26690;SDS011;14307;51.718;8.938;2022-11-18T04:41:51;190.27;;;48.92;;
26690;SDS011;14307;51.718;8.938;2022-11-18T04:44:28;209.52;;;50.10;;
26690;SDS011;14307;51.718;8.938;2022-11-18T04:49:23;183.02;;;46.20;;
26690;SDS011;14307;51.718;8.938;2022-11-18T04:51:51;197.40;;;47.03;;
26690;SDS011;14307;51.718;8.938;2022-11-18T04:54:18;198.05;;;48.40;;
26690;SDS011;14307;51.718;8.938;2022-11-18T04:56:45;208.88;;;48.70;;
26690;SDS011;14307;51.718;8.938;2022-11-18T04:59:16;204.02;;;50.63;;
26690;SDS011;14307;51.718;8.938;2022-11-18T05:01:46;202.63;;;48.97;;
26690;SDS011;14307;51.718;8.938;2022-11-18T05:04:14;230.35;;;48.58;;
26690;SDS011;14307;51.718;8.938;2022-11-18T05:06:43;208.32;;;47.15;;
26690;SDS011;14307;51.718;8.938;2022-11-18T05:09:10;182.40;;;45.80;;
26690;SDS011;14307;51.718;8.938;2022-11-18T05:11:36;172.90;;;44.13;;
26690;SDS011;14307;51.718;8.938;2022-11-18T05:14:24;164.05;;;43.28;;
26690;SDS011;14307;51.718;8.938;2022-11-18T05:16:52;163.63;;;43.25;;
26690;SDS011;14307;51.718;8.938;2022-11-18T05:19:20;150.68;;;40.92;;
26690;SDS011;14307;51.718;8.938;2022-11-18T05:21:46;145.40;;;43.20;;
26690;SDS011;14307;51.718;8.938;2022-11-18T05:24:13;161.13;;;43.25;;
26690;SDS011;14307;51.718;8.938;2022-11-18T05:26:40;166.85;;;43.75;;
26690;SDS011;14307;51.718;8.938;2022-11-18T05:29:07;174.23;;;45.75;;
26690;SDS011;14307;51.718;8.938;2022-11-18T05:31:38;186.75;;;46.30;;
26690;SDS011;14307;51.718;8.938;2022-11-18T05:34:04;155.95;;;41.35;;
26690;SDS011;14307;51.718;8.938;2022-11-18T05:36:32;157.27;;;41.00;;
26690;SDS011;14307;51.718;8.938;2022-11-18T05:38:59;140.68;;;39.90;;
26690;SDS011;14307;51.718;8.938;2022-11-18T05:41:25;157.07;;;40.33;;
26690;SDS011;14307;51.718;8.938;2022-11-18T05:44:11;164.35;;;44.28;;
26690;SDS011;14307;51.718;8.938;2022-11-18T05:46:37;195.68;;;47.65;;
26690;SDS011;14307;51.718;8.938;2022-11-18T05:49:04;181.85;;;45.80;;
26690;SDS011;14307;51.718;8.938;2022-11-18T05:51:31;195.20;;;47.42;;
26690;SDS011;14307;51.718;8.938;2022-11-18T05:53:57;243.50;;;51.90;;
26690;SDS011;14307;51.718;8.938;2022-11-18T05:56:29;233.75;;;50.72;;
26690;SDS011;14307;51.718;8.938;2022-11-18T05:59:02;226.48;;;50.65;;
26690;SDS011;14307;51.718;8.938;2022-11-18T06:03:58;254.30;;;51.75;;
26690;SDS011;14307;51.718;8.938;2022-11-18T06:06:28;268.00;;;53.58;;
26690;SDS011;14307;51.718;8.938;2022-11-18T06:09:05;272.00;;;56.78;;
26690;SDS011;14307;51.718;8.938;2022-11-18T06:11:39;300.40;;;56.42;;
26690;SDS011;14307;51.718;8.938;2022-11-18T06:16:43;241.18;;;49.00;;
26690;SDS011;14307;51.718;8.938;2022-11-18T06:19:14;258.55;;;51.13;;
26690;SDS011;14307;51.718;8.938;2022-11-18T06:21:42;248.70;;;52.38;;
26690;SDS011;14307;51.718;8.938;2022-11-18T06:24:10;268.95;;;55.90;;
26690;SDS011;14307;51.718;8.938;2022-11-18T06:26:38;231.52;;;49.63;;
26690;SDS011;14307;51.718;8.938;2022-11-18T06:29:06;263.90;;;55.15;;
26690;SDS011;14307;51.718;8.938;2022-11-18T06:31:36;243.90;;;52.35;;
26690;SDS011;14307;51.718;8.938;2022-11-18T06:34:02;242.68;;;52.72;;
26690;SDS011;14307;51.718;8.938;2022-11-18T06:36:29;211.73;;;47.97;;
26690;SDS011;14307;51.718;8.938;2022-11-18T06:38:56;253.00;;;55.47;;
26690;SDS011;14307;51.718;8.938;2022-11-18T06:41:30;258.77;;;53.55;;
26690;SDS011;14307;51.718;8.938;2022-11-18T06:43:57;245.52;;;52.95;;
26690;SDS011;14307;51.718;8.938;2022-11-18T06:46:24;236.57;;;52.58;;
26690;SDS011;14307;51.718;8.938;2022-11-18T06:49:10;202.00;;;45.08;;
26690;SDS011;14307;51.718;8.938;2022-11-18T06:51:37;164.25;;;42.15;;
26690;SDS011;14307;51.718;8.938;2022-11-18T06:54:04;163.55;;;44.22;;
26690;SDS011;14307;51.718;8.938;2022-11-18T06:56:37;159.75;;;40.20;;
26690;SDS011;14307;51.718;8.938;2022-11-18T06:59:04;159.45;;;41.65;;
26690;SDS011;14307;51.718;8.938;2022-11-18T07:01:33;132.00;;;38.88;;
26690;SDS011;14307;51.718;8.938;2022-11-18T07:04:01;158.80;;;39.03;;
26690;SDS011;14307;51.718;8.938;2022-11-18T07:06:29;121.78;;;37.53;;
26690;SDS011;14307;51.718;8.938;2022-11-18T07:08:58;137.05;;;39.92;;
26690;SDS011;14307;51.718;8.938;2022-11-18T07:11:26;131.23;;;38.72;;
26690;SDS011;14307;51.718;8.938;2022-11-18T07:13:53;127.43;;;35.67;;
26690;SDS011;14307;51.718;8.938;2022-11-18T07:16:21;129.10;;;37.65;;
26690;SDS011;14307;51.718;8.938;2022-11-18T07:18:49;132.77;;;36.97;;
26690;SDS011;14307;51.718;8.938;2022-11-18T07:21:18;135.98;;;40.20;;
26690;SDS011;14307;51.718;8.938;2022-11-18T07:23:46;140.82;;;38.58;;
26690;SDS011;14307;51.718;8.938;2022-11-18T07:26:13;133.63;;;38.35;;
26690;SDS011;14307;51.718;8.938;2022-11-18T07:28:40;142.75;;;41.15;;
26690;SDS011;14307;51.718;8.938;2022-11-18T07:33:36;166.30;;;39.35;;
26690;SDS011;14307;51.718;8.938;2022-11-18T07:36:04;158.77;;;41.97;;
26690;SDS011;14307;51.718;8.938;2022-11-18T07:39:00;211.82;;;47.17;;
26690;SDS011;14307;51.718;8.938;2022-11-18T07:41:29;167.50;;;42.90;;
26690;SDS011;14307;51.718;8.938;2022-11-18T07:43:57;165.38;;;44.25;;
26690;SDS011;14307;51.718;8.938;2022-11-18T07:46:27;184.98;;;44.28;;
26690;SDS011;14307;51.718;8.938;2022-11-18T07:49:00;151.45;;;42.78;;
26690;SDS011;14307;51.718;8.938;2022-11-18T07:51:29;134.50;;;41.00;;
26690;SDS011;14307;51.718;8.938;2022-11-18T07:54:04;171.75;;;47.97;;
26690;SDS011;14307;51.718;8.938;2022-11-18T07:56:42;140.60;;;42.85;;
26690;SDS011;14307;51.718;8.938;2022-11-18T07:59:08;120.85;;;39.90;;
26690;SDS011;14307;51.718;8.938;2022-11-18T08:01:35;127.05;;;39.95;;
26690;SDS011;14307;51.718;8.938;2022-11-18T08:04:06;129.10;;;39.33;;
26690;SDS011;14307;51.718;8.938;2022-11-18T08:06:35;111.93;;;37.08;;
26690;SDS011;14307;51.718;8.938;2022-11-18T08:09:02;109.38;;;38.30;;
26690;SDS011;14307;51.718;8.938;2022-11-18T08:11:30;103.95;;;38.10;;
26690;SDS011;14307;51.718;8.938;2022-11-18T08:13:57;105.65;;;35.80;;
26690;SDS011;14307;51.718;8.938;2022-11-18T08:16:24;112.28;;;37.25;;
26690;SDS011;14307;51.718;8.938;2022-11-18T08:18:51;112.60;;;37.35;;
26690;SDS011;14307;51.718;8.938;2022-11-18T08:21:19;103.43;;;35.30;;
26690;SDS011;14307;51.718;8.938;2022-11-18T08:23:50;105.60;;;39.33;;
26690;SDS011;14307;51.718;8.938;2022-11-18T08:26:19;109.28;;;39.15;;
26690;SDS011;14307;51.718;8.938;2022-11-18T08:28:46;111.82;;;37.88;;
26690;SDS011;14307;51.718;8.938;2022-11-18T08:31:21;108.47;;;37.65;;
26690;SDS011;14307;51.718;8.938;2022-11-18T08:33:59;103.90;;;37.10;;
26690;SDS011;14307;51.718;8.938;2022-11-18T08:36:29;105.97;;;37.72;;
26690;SDS011;14307;51.718;8.938;2022-11-18T08:38:58;104.05;;;36.13;;
26690;SDS011;14307;51.718;8.938;2022-11-18T08:41:33;101.65;;;36.15;;
26690;SDS011;14307;51.718;8.938;2022-11-18T08:44:02;100.45;;;34.45;;
26690;SDS011;14307;51.718;8.938;2022-11-18T08:46:30;93.28;;;36.13;;
26690;SDS011;14307;51.718;8.938;2022-11-18T08:48:57;95.97;;;35.85;;
26690;SDS011;14307;51.718;8.938;2022-11-18T08:51:24;104.20;;;36.75;;
26690;SDS011;14307;51.718;8.938;2022-11-18T08:53:51;124.25;;;42.00;;
26690;SDS011;14307;51.718;8.938;2022-11-18T08:56:19;123.97;;;43.25;;
26690;SDS011;14307;51.718;8.938;2022-11-18T08:58:46;121.68;;;42.13;;
26690;SDS011;14307;51.718;8.938;2022-11-18T09:01:13;132.35;;;41.65;;
26690;SDS011;14307;51.718;8.938;2022-11-18T09:03:40;113.88;;;40.42;;
26690;SDS011;14307;51.718;8.938;2022-11-18T09:06:08;130.52;;;44.35;;
26690;SDS011;14307;51.718;8.938;2022-11-18T09:08:43;123.72;;;42.45;;
26690;SDS011;14307;51.718;8.938;2022-11-18T09:11:18;134.68;;;43.35;;
26690;SDS011;14307;51.718;8.938;2022-11-18T09:13:46;128.50;;;41.90;;
26690;SDS011;14307;51.718;8.938;2022-11-18T09:16:36;154.60;;;43.33;;
26690;SDS011;14307;51.718;8.938;2022-11-18T09:19:03;131.70;;;43.65;;
26690;SDS011;14307;51.718;8.938;2022-11-18T09:21:49;131.98;;;42.58;;
26690;SDS011;14307;51.718;8.938;2022-11-18T09:24:16;150.15;;;41.97;;
26690;SDS011;14307;51.718;8.938;2022-11-18T09:26:43;142.23;;;43.50;;
26690;SDS011;14307;51.718;8.938;2022-11-18T09:29:11;144.90;;;41.53;;
26690;SDS011;14307;51.718;8.938;2022-11-18T09:31:37;152.93;;;42.30;;
26690;SDS011;14307;51.718;8.938;2022-11-18T09:34:04;150.02;;;44.72;;
26690;SDS011;14307;51.718;8.938;2022-11-18T09:36:33;140.10;;;43.53;;
26690;SDS011;14307;51.718;8.938;2022-11-18T09:39:00;145.20;;;39.28;;
26690;SDS011;14307;51.718;8.938;2022-11-18T09:41:43;145.55;;;44.08;;
26690;SDS011;14307;51.718;8.938;2022-11-18T09:47:29;152.38;;;42.17;;
26690;SDS011;14307;51.718;8.938;2022-11-18T09:50:31;129.23;;;38.63;;
26690;SDS011;14307;51.718;8.938;2022-11-18T09:53:44;151.38;;;41.28;;
26690;SDS011;14307;51.718;8.938;2022-11-18T09:56:14;135.82;;;39.88;;
26690;SDS011;14307;51.718;8.938;2022-11-18T09:58:41;158.40;;;40.67;;
26690;SDS011;14307;51.718;8.938;2022-11-18T10:01:13;140.57;;;39.35;;
26690;SDS011;14307;51.718;8.938;2022-11-18T10:03:44;135.43;;;37.88;;
26690;SDS011;14307;51.718;8.938;2022-11-18T10:06:17;159.02;;;41.05;;
26690;SDS011;14307;51.718;8.938;2022-11-18T10:14:47;174.45;;;41.42;;
26690;SDS011;14307;51.718;8.938;2022-11-18T10:17:39;149.82;;;39.05;;
26690;SDS011;14307;51.718;8.938;2022-11-18T10:25:32;183.98;;;44.25;;
26690;SDS011;14307;51.718;8.938;2022-11-18T10:28:05;203.48;;;44.13;;
26690;SDS011;14307;51.718;8.938;2022-11-18T10:30:45;175.40;;;41.67;;
26690;SDS011;14307;51.718;8.938;2022-11-18T10:35:48;163.50;;;41.50;;
26690;SDS011;14307;51.718;8.938;2022-11-18T10:38:18;173.45;;;41.92;;
26690;SDS011;14307;51.718;8.938;2022-11-18T10:46:21;147.90;;;40.22;;
26690;SDS011;14307;51.718;8.938;2022-11-18T10:51:35;118.53;;;35.70;;
26690;SDS011;14307;51.718;8.938;2022-11-18T10:54:19;100.40;;;34.13;;
26690;SDS011;14307;51.718;8.938;2022-11-18T10:59:46;86.93;;;31.77;;
26690;SDS011;14307;51.718;8.938;2022-11-18T11:04:49;78.68;;;29.58;;
26690;SDS011;14307;51.718;8.938;2022-11-18T11:12:42;86.85;;;30.27;;
26690;SDS011;14307;51.718;8.938;2022-11-18T11:15:14;103.20;;;33.58;;
26690;SDS011;14307;51.718;8.938;2022-11-18T11:17:44;101.53;;;35.72;;
26690;SDS011;14307;51.718;8.938;2022-11-18T11:20:37;118.15;;;36.22;;
26690;SDS011;14307;51.718;8.938;2022-11-18T11:23:14;114.78;;;37.40;;
26690;SDS011;14307;51.718;8.938;2022-11-18T11:25:56;115.47;;;34.63;;
26690;SDS011;14307;51.718;8.938;2022-11-18T11:29:00;101.63;;;34.00;;
26690;SDS011;14307;51.718;8.938;2022-11-18T11:39:35;95.40;;;32.40;;
26690;SDS011;14307;51.718;8.938;2022-11-18T11:42:24;92.03;;;28.13;;
26690;SDS011;14307;51.718;8.938;2022-11-18T11:45:08;92.13;;;31.92;;
26690;SDS011;14307;51.718;8.938;2022-11-18T11:50:40;129.35;;;49.95;;
26690;SDS011;14307;51.718;8.938;2022-11-18T11:53:56;196.80;;;99.25;;
26690;SDS011;14307;51.718;8.938;2022-11-18T11:56:47;105.60;;;55.53;;
26690;SDS011;14307;51.718;8.938;2022-11-18T11:59:20;81.47;;;26.80;;
26690;SDS011;14307;51.718;8.938;2022-11-18T12:02:16;88.07;;;28.45;;
26690;SDS011;14307;51.718;8.938;2022-11-18T12:05:38;92.65;;;38.05;;
26690;SDS011;14307;51.718;8.938;2022-11-18T12:07:55;86.05;;;38.30;;
26690;SDS011;14307;51.718;8.938;2022-11-18T12:15:52;82.10;;;38.30;;
26690;SDS011;14307;51.718;8.938;2022-11-18T12:21:00;56.53;;;22.35;;
26690;SDS011;14307;51.718;8.938;2022-11-18T12:23:30;56.67;;;22.38;;
26690;SDS011;14307;51.718;8.938;2022-11-18T12:33:41;45.17;;;24.88;;
26690;SDS011;14307;51.718;8.938;2022-11-18T12:36:09;44.13;;;19.75;;
26690;SDS011;14307;51.718;8.938;2022-11-18T12:38:49;51.55;;;20.38;;
26690;SDS011;14307;51.718;8.938;2022-11-18T12:44:26;48.67;;;23.85;;
26690;SDS011;14307;51.718;8.938;2022-11-18T12:46:54;50.05;;;25.75;;
26690;SDS011;14307;51.718;8.938;2022-11-18T12:59:44;58.78;;;37.55;;
26690;SDS011;14307;51.718;8.938;2022-11-18T13:04:38;49.80;;;22.85;;
26690;SDS011;14307;51.718;8.938;2022-11-18T13:07:15;48.30;;;25.08;;
26690;SDS011;14307;51.718;8.938;2022-11-18T13:10:01;52.10;;;20.20;;
26690;SDS011;14307;51.718;8.938;2022-11-18T13:12:47;56.60;;;21.13;;
26690;SDS011;14307;51.718;8.938;2022-11-18T13:15:14;49.40;;;22.23;;
26690;SDS011;14307;51.718;8.938;2022-11-18T13:20:37;59.88;;;24.27;;
26690;SDS011;14307;51.718;8.938;2022-11-18T13:26:06;52.63;;;20.10;;
26690;SDS011;14307;51.718;8.938;2022-11-18T13:28:39;47.33;;;20.10;;
26690;SDS011;14307;51.718;8.938;2022-11-18T13:31:31;47.05;;;20.13;;
26690;SDS011;14307;51.718;8.938;2022-11-18T13:34:17;60.65;;;20.95;;
26690;SDS011;14307;51.718;8.938;2022-11-18T13:36:51;50.58;;;21.38;;
26690;SDS011;14307;51.718;8.938;2022-11-18T13:39:26;46.78;;;20.77;;
26690;SDS011;14307;51.718;8.938;2022-11-18T13:44:29;53.17;;;19.17;;
26690;SDS011;14307;51.718;8.938;2022-11-18T13:47:02;40.20;;;20.42;;
26690;SDS011;14307;51.718;8.938;2022-11-18T13:49:36;36.67;;;19.02;;
26690;SDS011;14307;51.718;8.938;2022-11-18T13:52:13;47.28;;;22.33;;
26690;SDS011;14307;51.718;8.938;2022-11-18T13:54:49;49.75;;;21.88;;
26690;SDS011;14307;51.718;8.938;2022-11-18T13:57:18;35.10;;;16.95;;
26690;SDS011;14307;51.718;8.938;2022-11-18T13:59:47;35.00;;;18.08;;
26690;SDS011;14307;51.718;8.938;2022-11-18T14:02:15;26.65;;;14.52;;
26690;SDS011;14307;51.718;8.938;2022-11-18T14:04:50;34.33;;;19.45;;
26690;SDS011;14307;51.718;8.938;2022-11-18T14:09:58;23.77;;;14.10;;
26690;SDS011;14307;51.718;8.938;2022-11-18T14:12:39;25.58;;;15.32;;
26690;SDS011;14307;51.718;8.938;2022-11-18T14:15:19;46.67;;;21.90;;
26690;SDS011;14307;51.718;8.938;2022-11-18T14:17:48;31.63;;;15.00;;
26690;SDS011;14307;51.718;8.938;2022-11-18T14:20:18;30.38;;;14.82;;
26690;SDS011;14307;51.718;8.938;2022-11-18T14:22:44;32.03;;;16.48;;
26690;SDS011;14307;51.718;8.938;2022-11-18T14:30:40;31.95;;;17.70;;
26690;SDS011;14307;51.718;8.938;2022-11-18T14:33:11;39.13;;;18.48;;
26690;SDS011;14307;51.718;8.938;2022-11-18T14:41:18;36.60;;;17.45;;
26690;SDS011;14307;51.718;8.938;2022-11-18T14:44:10;26.05;;;13.43;;
26690;SDS011;14307;51.718;8.938;2022-11-18T14:46:38;26.27;;;13.07;;
26690;SDS011;14307;51.718;8.938;2022-11-18T14:49:09;28.38;;;14.13;;
26690;SDS011;14307;51.718;8.938;2022-11-18T14:51:39;23.08;;;13.30;;
26690;SDS011;14307;51.718;8.938;2022-11-18T14:54:05;24.15;;;12.90;;
26690;SDS011;14307;51.718;8.938;2022-11-18T14:56:32;21.05;;;12.40;;
26690;SDS011;14307;51.718;8.938;2022-11-18T14:58:59;23.65;;;12.50;;
26690;SDS011;14307;51.718;8.938;2022-11-18T15:01:26;20.50;;;10.60;;
26690;SDS011;14307;51.718;8.938;2022-11-18T15:03:56;19.83;;;12.77;;
26690;SDS011;14307;51.718;8.938;2022-11-18T15:06:23;20.42;;;10.50;;
26690;SDS011;14307;51.718;8.938;2022-11-18T15:08:51;18.95;;;11.30;;
26690;SDS011;14307;51.718;8.938;2022-11-18T15:11:18;62.13;;;34.97;;
26690;SDS011;14307;51.718;8.938;2022-11-18T15:13:45;21.95;;;12.27;;
26690;SDS011;14307;51.718;8.938;2022-11-18T15:16:13;40.40;;;21.05;;
26690;SDS011;14307;51.718;8.938;2022-11-18T15:18:47;67.60;;;36.33;;
26690;SDS011;14307;51.718;8.938;2022-11-18T15:21:15;33.28;;;17.33;;
26690;SDS011;14307;51.718;8.938;2022-11-18T15:23:42;26.52;;;13.45;;
26690;SDS011;14307;51.718;8.938;2022-11-18T15:28:43;27.27;;;18.08;;
26690;SDS011;14307;51.718;8.938;2022-11-18T15:31:10;26.23;;;16.48;;
26690;SDS011;14307;51.718;8.938;2022-11-18T15:33:37;21.75;;;12.35;;
26690;SDS011;14307;51.718;8.938;2022-11-18T15:36:04;81.93;;;54.50;;
26690;SDS011;14307;51.718;8.938;2022-11-18T15:38:36;21.95;;;15.93;;
26690;SDS011;14307;51.718;8.938;2022-11-18T15:41:03;16.48;;;9.25;;
26690;SDS011;14307;51.718;8.938;2022-11-18T15:43:30;14.45;;;8.93;;
26690;SDS011;14307;51.718;8.938;2022-11-18T15:45:57;16.60;;;9.73;;
26690;SDS011;14307;51.718;8.938;2022-11-18T15:48:24;14.23;;;8.43;;
26690;SDS011;14307;51.718;8.938;2022-11-18T15:50:50;13.25;;;8.18;;
26690;SDS011;14307;51.718;8.938;2022-11-18T15:53:19;11.15;;;7.70;;
26690;SDS011;14307;51.718;8.938;2022-11-18T15:55:46;16.77;;;8.80;;
26690;SDS011;14307;51.718;8.938;2022-11-18T15:58:13;11.95;;;7.63;;
26690;SDS011;14307;51.718;8.938;2022-11-18T16:00:42;11.50;;;7.30;;
26690;SDS011;14307;51.718;8.938;2022-11-18T16:03:10;13.90;;;7.43;;
26690;SDS011;14307;51.718;8.938;2022-11-18T16:05:37;17.67;;;8.73;;
26690;SDS011;14307;51.718;8.938;2022-11-18T16:08:03;10.95;;;8.23;;
26690;SDS011;14307;51.718;8.938;2022-11-18T16:10:31;11.98;;;8.80;;
26690;SDS011;14307;51.718;8.938;2022-11-18T16:13:19;16.88;;;10.63;;
26690;SDS011;14307;51.718;8.938;2022-11-18T16:15:46;13.68;;;9.57;;
26690;SDS011;14307;51.718;8.938;2022-11-18T16:18:15;17.33;;;10.07;;
26690;SDS011;14307;51.718;8.938;2022-11-18T16:20:43;15.27;;;9.60;;
26690;SDS011;14307;51.718;8.938;2022-11-18T16:23:09;10.45;;;7.47;;
26690;SDS011;14307;51.718;8.938;2022-11-18T16:25:41;16.33;;;10.50;;
26690;SDS011;14307;51.718;8.938;2022-11-18T16:28:09;16.77;;;10.85;;
26690;SDS011;14307;51.718;8.938;2022-11-18T16:30:35;15.73;;;10.07;;
26690;SDS011;14307;51.718;8.938;2022-11-18T16:33:21;13.48;;;8.30;;
26690;SDS011;14307;51.718;8.938;2022-11-18T16:35:48;12.35;;;8.13;;
26690;SDS011;14307;51.718;8.938;2022-11-18T16:38:14;15.68;;;9.73;;
26690;SDS011;14307;51.718;8.938;2022-11-18T16:40:41;15.50;;;9.57;;
26690;SDS011;14307;51.718;8.938;2022-11-18T16:43:08;14.00;;;8.02;;
26690;SDS011;14307;51.718;8.938;2022-11-18T16:45:34;15.50;;;8.82;;
26690;SDS011;14307;51.718;8.938;2022-11-18T16:48:01;14.95;;;7.97;;
26690;SDS011;14307;51.718;8.938;2022-11-18T16:50:28;13.20;;;8.02;;
26690;SDS011;14307;51.718;8.938;2022-11-18T16:52:55;15.40;;;8.77;;
26690;SDS011;14307;51.718;8.938;2022-11-18T16:55:22;11.88;;;7.65;;
26690;SDS011;14307;51.718;8.938;2022-11-18T16:57:48;12.73;;;7.93;;
26690;SDS011;14307;51.718;8.938;2022-11-18T17:00:15;15.32;;;9.35;;
26690;SDS011;14307;51.718;8.938;2022-11-18T17:02:42;18.95;;;10.88;;
26690;SDS011;14307;51.718;8.938;2022-11-18T17:05:09;12.65;;;9.05;;
26690;SDS011;14307;51.718;8.938;2022-11-18T17:07:38;12.20;;;7.25;;
26690;SDS011;14307;51.718;8.938;2022-11-18T17:10:05;12.43;;;8.20;;